sensor_id;sensor_type;location;lat;lon;timestamp;temperature;humidity
54846;DHT22;53889;50.084;8.646;2023-04-16T00:01:04;10.00;99.90
54846;DHT22;53889;50.084;8.646;2023-04-16T00:03:31;10.00;99.90
54846;DHT22;53889;50.084;8.646;2023-04-16T00:05:58;9.90;99.90
54846;DHT22;53889;50.084;8.646;2023-04-16T00:08:25;10.00;99.90
54846;DHT22;53889;50.084;8.646;2023-04-16T00:10:53;10.00;99.90
54846;DHT22;53889;50.084;8.646;2023-04-16T00:13:19;10.00;99.90
54846;DHT22;53889;50.084;8.646;2023-04-16T00:15:47;10.10;99.90
54846;DHT22;53889;50.084;8.646;2023-04-16T00:18:13;10.20;99.90
54846;DHT22;53889;50.084;8.646;2023-04-16T00:20:40;10.20;99.90
54846;DHT22;53889;50.084;8.646;2023-04-16T00:23:07;10.30;99.90
54846;DHT22;53889;50.084;8.646;2023-04-16T00:25:33;10.30;99.90
54846;DHT22;53889;50.084;8.646;2023-04-16T00:28:03;10.40;99.90
54846;DHT22;53889;50.084;8.646;2023-04-16T00:30:31;10.30;99.90
54846;DHT22;53889;50.084;8.646;2023-04-16T00:32:57;10.40;99.90
54846;DHT22;53889;50.084;8.646;2023-04-16T00:35:24;10.30;99.90
54846;DHT22;53889;50.084;8.646;2023-04-16T00:37:51;10.40;99.90
54846;DHT22;53889;50.084;8.646;2023-04-16T00:40:17;10.40;99.90
54846;DHT22;53889;50.084;8.646;2023-04-16T00:42:44;10.40;99.90
54846;DHT22;53889;50.084;8.646;2023-04-16T00:45:12;10.40;99.90
54846;DHT22;53889;50.084;8.646;2023-04-16T00:47:39;10.40;99.90
54846;DHT22;53889;50.084;8.646;2023-04-16T00:50:06;10.40;99.90
54846;DHT22;53889;50.084;8.646;2023-04-16T00:52:34;10.40;99.90
54846;DHT22;53889;50.084;8.646;2023-04-16T00:55:00;10.40;99.90
54846;DHT22;53889;50.084;8.646;2023-04-16T00:57:29;11.90;99.90
54846;DHT22;53889;50.084;8.646;2023-04-16T00:59:55;10.40;99.90
54846;DHT22;53889;50.084;8.646;2023-04-16T01:02:24;10.40;99.90
54846;DHT22;53889;50.084;8.646;2023-04-16T01:04:51;10.50;99.90
54846;DHT22;53889;50.084;8.646;2023-04-16T01:07:18;10.40;99.90
54846;DHT22;53889;50.084;8.646;2023-04-16T01:09:45;10.40;99.90
54846;DHT22;53889;50.084;8.646;2023-04-16T01:12:12;10.40;99.90
54846;DHT22;53889;50.084;8.646;2023-04-16T01:14:39;10.20;99.90
54846;DHT22;53889;50.084;8.646;2023-04-16T01:17:05;10.40;99.90
54846;DHT22;53889;50.084;8.646;2023-04-16T01:19:33;10.40;99.90
54846;DHT22;53889;50.084;8.646;2023-04-16T01:22:02;10.20;99.90
54846;DHT22;53889;50.084;8.646;2023-04-16T01:24:29;11.20;99.90
54846;DHT22;53889;50.084;8.646;2023-04-16T01:26:57;11.90;99.90
54846;DHT22;53889;50.084;8.646;2023-04-16T01:29:24;10.20;99.90
54846;DHT22;53889;50.084;8.646;2023-04-16T01:31:51;10.20;99.90
54846;DHT22;53889;50.084;8.646;2023-04-16T01:34:39;10.10;99.90
54846;DHT22;53889;50.084;8.646;2023-04-16T01:37:07;10.10;99.90
54846;DHT22;53889;50.084;8.646;2023-04-16T01:39:34;10.10;99.90
54846;DHT22;53889;50.084;8.646;2023-04-16T01:42:00;10.10;99.90
54846;DHT22;53889;50.084;8.646;2023-04-16T01:44:27;10.20;99.90
54846;DHT22;53889;50.084;8.646;2023-04-16T01:46:55;10.00;99.90
54846;DHT22;53889;50.084;8.646;2023-04-16T01:49:22;10.10;99.90
54846;DHT22;53889;50.084;8.646;2023-04-16T01:51:49;10.20;99.90
54846;DHT22;53889;50.084;8.646;2023-04-16T01:54:17;10.20;99.90
54846;DHT22;53889;50.084;8.646;2023-04-16T01:56:43;10.20;99.90
54846;DHT22;53889;50.084;8.646;2023-04-16T01:59:10;10.20;99.90
54846;DHT22;53889;50.084;8.646;2023-04-16T02:01:40;10.30;99.90
54846;DHT22;53889;50.084;8.646;2023-04-16T02:04:08;10.10;99.90
54846;DHT22;53889;50.084;8.646;2023-04-16T02:06:35;10.10;99.90
54846;DHT22;53889;50.084;8.646;2023-04-16T02:09:01;10.10;99.90
54846;DHT22;53889;50.084;8.646;2023-04-16T02:11:29;10.10;99.90
54846;DHT22;53889;50.084;8.646;2023-04-16T02:13:56;10.20;99.90
54846;DHT22;53889;50.084;8.646;2023-04-16T02:16:24;10.20;99.90
54846;DHT22;53889;50.084;8.646;2023-04-16T02:18:56;10.20;99.90
54846;DHT22;53889;50.084;8.646;2023-04-16T02:21:25;10.20;99.90
54846;DHT22;53889;50.084;8.646;2023-04-16T02:23:52;10.20;99.90
54846;DHT22;53889;50.084;8.646;2023-04-16T02:26:24;10.20;99.90
54846;DHT22;53889;50.084;8.646;2023-04-16T02:28:54;11.50;99.90
54846;DHT22;53889;50.084;8.646;2023-04-16T02:31:26;10.10;99.90
54846;DHT22;53889;50.084;8.646;2023-04-16T02:33:53;10.90;99.90
54846;DHT22;53889;50.084;8.646;2023-04-16T02:36:20;10.20;99.90
54846;DHT22;53889;50.084;8.646;2023-04-16T02:38:47;10.20;99.90
54846;DHT22;53889;50.084;8.646;2023-04-16T02:41:14;10.20;99.90
54846;DHT22;53889;50.084;8.646;2023-04-16T02:43:41;10.20;99.90
54846;DHT22;53889;50.084;8.646;2023-04-16T02:46:09;12.40;99.90
54846;DHT22;53889;50.084;8.646;2023-04-16T02:48:35;10.30;99.90
54846;DHT22;53889;50.084;8.646;2023-04-16T02:51:02;10.20;99.90
54846;DHT22;53889;50.084;8.646;2023-04-16T02:53:29;10.30;99.90
54846;DHT22;53889;50.084;8.646;2023-04-16T02:55:55;10.30;99.90
54846;DHT22;53889;50.084;8.646;2023-04-16T02:58:23;10.30;99.90
54846;DHT22;53889;50.084;8.646;2023-04-16T03:00:51;10.40;99.90
54846;DHT22;53889;50.084;8.646;2023-04-16T03:03:19;11.60;99.90
54846;DHT22;53889;50.084;8.646;2023-04-16T03:05:47;10.30;99.90
54846;DHT22;53889;50.084;8.646;2023-04-16T03:08:15;10.20;99.90
54846;DHT22;53889;50.084;8.646;2023-04-16T03:10:42;10.30;99.90
54846;DHT22;53889;50.084;8.646;2023-04-16T03:13:08;10.30;99.90
54846;DHT22;53889;50.084;8.646;2023-04-16T03:15:35;10.30;99.90
54846;DHT22;53889;50.084;8.646;2023-04-16T03:18:02;10.20;99.90
54846;DHT22;53889;50.084;8.646;2023-04-16T03:20:30;10.20;99.90
54846;DHT22;53889;50.084;8.646;2023-04-16T03:22:57;10.10;99.90
54846;DHT22;53889;50.084;8.646;2023-04-16T03:25:24;10.10;99.90
54846;DHT22;53889;50.084;8.646;2023-04-16T03:27:50;10.20;99.90
54846;DHT22;53889;50.084;8.646;2023-04-16T03:30:17;10.20;99.90
54846;DHT22;53889;50.084;8.646;2023-04-16T03:32:44;11.00;99.90
54846;DHT22;53889;50.084;8.646;2023-04-16T03:35:11;10.20;99.90
54846;DHT22;53889;50.084;8.646;2023-04-16T03:37:39;10.10;99.90
54846;DHT22;53889;50.084;8.646;2023-04-16T03:40:07;10.10;99.90
54846;DHT22;53889;50.084;8.646;2023-04-16T03:42:34;10.10;99.90
54846;DHT22;53889;50.084;8.646;2023-04-16T03:45:01;10.00;99.90
54846;DHT22;53889;50.084;8.646;2023-04-16T03:47:28;10.30;99.90
54846;DHT22;53889;50.084;8.646;2023-04-16T03:49:59;10.10;99.90
54846;DHT22;53889;50.084;8.646;2023-04-16T03:52:27;10.20;99.90
54846;DHT22;53889;50.084;8.646;2023-04-16T03:54:55;10.20;99.90
54846;DHT22;53889;50.084;8.646;2023-04-16T03:57:27;10.20;99.90
54846;DHT22;53889;50.084;8.646;2023-04-16T03:59:59;10.10;99.90
54846;DHT22;53889;50.084;8.646;2023-04-16T04:02:28;10.10;99.90
54846;DHT22;53889;50.084;8.646;2023-04-16T04:04:55;10.10;99.90
54846;DHT22;53889;50.084;8.646;2023-04-16T04:07:22;9.90;99.90
54846;DHT22;53889;50.084;8.646;2023-04-16T04:09:48;10.00;99.90
54846;DHT22;53889;50.084;8.646;2023-04-16T04:12:17;9.90;99.90
54846;DHT22;53889;50.084;8.646;2023-04-16T04:14:45;9.90;99.90
54846;DHT22;53889;50.084;8.646;2023-04-16T04:17:11;10.70;99.90
54846;DHT22;53889;50.084;8.646;2023-04-16T04:19:38;9.90;99.90
54846;DHT22;53889;50.084;8.646;2023-04-16T04:22:06;9.90;99.90
54846;DHT22;53889;50.084;8.646;2023-04-16T04:24:33;9.90;99.90
54846;DHT22;53889;50.084;8.646;2023-04-16T04:27:00;9.90;99.90
54846;DHT22;53889;50.084;8.646;2023-04-16T04:29:28;9.90;99.90
54846;DHT22;53889;50.084;8.646;2023-04-16T04:31:55;9.80;99.90
54846;DHT22;53889;50.084;8.646;2023-04-16T04:34:23;9.80;99.90
54846;DHT22;53889;50.084;8.646;2023-04-16T04:36:50;9.90;99.90
54846;DHT22;53889;50.084;8.646;2023-04-16T04:39:17;9.80;99.90
54846;DHT22;53889;50.084;8.646;2023-04-16T04:41:47;9.80;99.90
54846;DHT22;53889;50.084;8.646;2023-04-16T04:44:13;10.00;99.90
54846;DHT22;53889;50.084;8.646;2023-04-16T04:46:42;9.90;99.90
54846;DHT22;53889;50.084;8.646;2023-04-16T04:49:08;9.70;99.90
54846;DHT22;53889;50.084;8.646;2023-04-16T04:51:35;9.60;99.90
54846;DHT22;53889;50.084;8.646;2023-04-16T04:54:03;9.80;99.90
54846;DHT22;53889;50.084;8.646;2023-04-16T04:56:29;9.80;99.90
54846;DHT22;53889;50.084;8.646;2023-04-16T04:58:56;9.70;99.90
54846;DHT22;53889;50.084;8.646;2023-04-16T05:01:23;9.80;99.90
54846;DHT22;53889;50.084;8.646;2023-04-16T05:03:51;9.90;99.90
54846;DHT22;53889;50.084;8.646;2023-04-16T05:06:18;9.90;99.90
54846;DHT22;53889;50.084;8.646;2023-04-16T05:08:44;9.90;99.90
54846;DHT22;53889;50.084;8.646;2023-04-16T05:11:11;10.00;99.90
54846;DHT22;53889;50.084;8.646;2023-04-16T05:13:38;10.00;99.90
54846;DHT22;53889;50.084;8.646;2023-04-16T05:16:05;10.00;99.90
54846;DHT22;53889;50.084;8.646;2023-04-16T05:18:32;10.00;99.90
54846;DHT22;53889;50.084;8.646;2023-04-16T05:21:00;10.00;99.90
54846;DHT22;53889;50.084;8.646;2023-04-16T05:23:27;10.00;99.90
54846;DHT22;53889;50.084;8.646;2023-04-16T05:25:54;10.00;99.90
54846;DHT22;53889;50.084;8.646;2023-04-16T05:28:21;10.00;99.90
54846;DHT22;53889;50.084;8.646;2023-04-16T05:30:47;10.00;99.90
54846;DHT22;53889;50.084;8.646;2023-04-16T05:33:14;10.10;99.90
54846;DHT22;53889;50.084;8.646;2023-04-16T05:35:41;10.00;99.90
54846;DHT22;53889;50.084;8.646;2023-04-16T05:38:09;10.00;99.90
54846;DHT22;53889;50.084;8.646;2023-04-16T05:40:36;9.90;99.90
54846;DHT22;53889;50.084;8.646;2023-04-16T05:43:02;10.70;99.90
54846;DHT22;53889;50.084;8.646;2023-04-16T05:45:29;10.00;99.90
54846;DHT22;53889;50.084;8.646;2023-04-16T05:47:58;10.00;99.90
54846;DHT22;53889;50.084;8.646;2023-04-16T05:50:24;10.00;99.90
54846;DHT22;53889;50.084;8.646;2023-04-16T05:52:51;10.10;99.90
54846;DHT22;53889;50.084;8.646;2023-04-16T05:55:20;10.10;99.90
54846;DHT22;53889;50.084;8.646;2023-04-16T05:57:46;10.00;99.90
54846;DHT22;53889;50.084;8.646;2023-04-16T06:00:13;11.30;99.90
54846;DHT22;53889;50.084;8.646;2023-04-16T06:02:40;10.00;99.90
54846;DHT22;53889;50.084;8.646;2023-04-16T06:05:07;10.00;99.90
54846;DHT22;53889;50.084;8.646;2023-04-16T06:07:48;10.10;99.90
54846;DHT22;53889;50.084;8.646;2023-04-16T06:10:25;10.10;99.90
54846;DHT22;53889;50.084;8.646;2023-04-16T06:12:54;10.10;99.90
54846;DHT22;53889;50.084;8.646;2023-04-16T06:15:21;10.10;99.90
54846;DHT22;53889;50.084;8.646;2023-04-16T06:17:48;10.10;99.90
54846;DHT22;53889;50.084;8.646;2023-04-16T06:20:16;10.10;99.90
54846;DHT22;53889;50.084;8.646;2023-04-16T06:22:43;10.40;99.90
54846;DHT22;53889;50.084;8.646;2023-04-16T06:25:09;10.10;99.90
54846;DHT22;53889;50.084;8.646;2023-04-16T06:27:38;10.00;99.90
54846;DHT22;53889;50.084;8.646;2023-04-16T06:30:10;10.10;99.90
54846;DHT22;53889;50.084;8.646;2023-04-16T06:32:37;10.10;99.90
54846;DHT22;53889;50.084;8.646;2023-04-16T06:35:05;10.00;99.90
54846;DHT22;53889;50.084;8.646;2023-04-16T06:37:32;9.90;99.90
54846;DHT22;53889;50.084;8.646;2023-04-16T06:39:59;9.90;99.90
54846;DHT22;53889;50.084;8.646;2023-04-16T06:42:25;9.80;99.90
54846;DHT22;53889;50.084;8.646;2023-04-16T06:44:53;9.70;99.90
54846;DHT22;53889;50.084;8.646;2023-04-16T06:47:20;9.70;99.90
54846;DHT22;53889;50.084;8.646;2023-04-16T06:49:47;9.70;99.90
54846;DHT22;53889;50.084;8.646;2023-04-16T06:52:16;10.50;99.90
54846;DHT22;53889;50.084;8.646;2023-04-16T06:54:43;9.80;99.90
54846;DHT22;53889;50.084;8.646;2023-04-16T06:57:09;9.70;99.90
54846;DHT22;53889;50.084;8.646;2023-04-16T06:59:36;9.80;99.90
54846;DHT22;53889;50.084;8.646;2023-04-16T07:02:04;9.80;99.90
54846;DHT22;53889;50.084;8.646;2023-04-16T07:04:32;10.10;99.90
54846;DHT22;53889;50.084;8.646;2023-04-16T07:06:58;9.70;99.90
54846;DHT22;53889;50.084;8.646;2023-04-16T07:09:25;9.60;99.90
54846;DHT22;53889;50.084;8.646;2023-04-16T07:11:52;9.70;99.90
54846;DHT22;53889;50.084;8.646;2023-04-16T07:14:19;9.60;99.90
54846;DHT22;53889;50.084;8.646;2023-04-16T07:16:46;9.60;99.90
54846;DHT22;53889;50.084;8.646;2023-04-16T07:19:14;9.70;99.90
54846;DHT22;53889;50.084;8.646;2023-04-16T07:21:41;9.80;99.90
54846;DHT22;53889;50.084;8.646;2023-04-16T07:24:08;9.70;99.90
54846;DHT22;53889;50.084;8.646;2023-04-16T07:26:35;9.60;99.90
54846;DHT22;53889;50.084;8.646;2023-04-16T07:29:02;9.70;99.90
54846;DHT22;53889;50.084;8.646;2023-04-16T07:31:29;9.70;99.90
54846;DHT22;53889;50.084;8.646;2023-04-16T07:33:56;9.70;99.90
54846;DHT22;53889;50.084;8.646;2023-04-16T07:36:24;9.90;99.90
54846;DHT22;53889;50.084;8.646;2023-04-16T07:38:51;9.80;99.90
54846;DHT22;53889;50.084;8.646;2023-04-16T07:41:18;9.80;99.90
54846;DHT22;53889;50.084;8.646;2023-04-16T07:43:45;9.80;99.90
54846;DHT22;53889;50.084;8.646;2023-04-16T07:46:12;9.80;99.90
54846;DHT22;53889;50.084;8.646;2023-04-16T07:48:39;9.80;99.90
54846;DHT22;53889;50.084;8.646;2023-04-16T07:51:05;10.70;99.90
54846;DHT22;53889;50.084;8.646;2023-04-16T07:53:33;9.80;99.90
54846;DHT22;53889;50.084;8.646;2023-04-16T07:56:00;9.70;99.90
54846;DHT22;53889;50.084;8.646;2023-04-16T07:58:27;9.70;99.90
54846;DHT22;53889;50.084;8.646;2023-04-16T08:00:54;9.70;99.90
54846;DHT22;53889;50.084;8.646;2023-04-16T08:03:21;9.70;99.90
54846;DHT22;53889;50.084;8.646;2023-04-16T08:05:48;9.80;99.90
54846;DHT22;53889;50.084;8.646;2023-04-16T08:08:15;9.80;99.90
54846;DHT22;53889;50.084;8.646;2023-04-16T08:10:43;9.80;99.90
54846;DHT22;53889;50.084;8.646;2023-04-16T08:13:09;9.90;99.90
54846;DHT22;53889;50.084;8.646;2023-04-16T08:15:36;9.90;99.90
54846;DHT22;53889;50.084;8.646;2023-04-16T08:18:03;9.90;99.90
54846;DHT22;53889;50.084;8.646;2023-04-16T08:20:32;10.00;99.90
54846;DHT22;53889;50.084;8.646;2023-04-16T08:22:58;9.90;99.90
54846;DHT22;53889;50.084;8.646;2023-04-16T08:25:25;9.90;99.90
54846;DHT22;53889;50.084;8.646;2023-04-16T08:27:53;10.10;99.90
54846;DHT22;53889;50.084;8.646;2023-04-16T08:30:20;10.10;99.90
54846;DHT22;53889;50.084;8.646;2023-04-16T08:32:47;10.20;99.90
54846;DHT22;53889;50.084;8.646;2023-04-16T08:35:14;10.30;99.90
54846;DHT22;53889;50.084;8.646;2023-04-16T08:37:41;10.30;99.90
54846;DHT22;53889;50.084;8.646;2023-04-16T08:40:08;10.20;99.90
54846;DHT22;53889;50.084;8.646;2023-04-16T08:42:39;10.20;99.90
54846;DHT22;53889;50.084;8.646;2023-04-16T08:45:13;10.20;99.90
54846;DHT22;53889;50.084;8.646;2023-04-16T08:47:40;10.20;99.90
54846;DHT22;53889;50.084;8.646;2023-04-16T08:50:08;10.30;99.90
54846;DHT22;53889;50.084;8.646;2023-04-16T08:52:37;10.30;99.90
54846;DHT22;53889;50.084;8.646;2023-04-16T08:55:09;10.30;99.90
54846;DHT22;53889;50.084;8.646;2023-04-16T08:57:39;10.40;99.90
54846;DHT22;53889;50.084;8.646;2023-04-16T09:00:12;10.40;99.90
54846;DHT22;53889;50.084;8.646;2023-04-16T09:02:40;10.50;99.90
54846;DHT22;53889;50.084;8.646;2023-04-16T09:05:07;10.50;99.90
54846;DHT22;53889;50.084;8.646;2023-04-16T09:07:35;10.50;99.90
54846;DHT22;53889;50.084;8.646;2023-04-16T09:10:05;10.60;99.90
54846;DHT22;53889;50.084;8.646;2023-04-16T09:12:32;10.70;99.90
54846;DHT22;53889;50.084;8.646;2023-04-16T09:15:00;10.80;99.90
54846;DHT22;53889;50.084;8.646;2023-04-16T09:17:29;10.80;99.90
54846;DHT22;53889;50.084;8.646;2023-04-16T09:19:56;10.80;99.90
54846;DHT22;53889;50.084;8.646;2023-04-16T09:22:23;10.80;99.90
54846;DHT22;53889;50.084;8.646;2023-04-16T09:24:50;10.80;99.90
54846;DHT22;53889;50.084;8.646;2023-04-16T09:27:17;10.80;99.90
54846;DHT22;53889;50.084;8.646;2023-04-16T09:29:44;10.80;99.90
54846;DHT22;53889;50.084;8.646;2023-04-16T09:32:11;10.90;99.90
54846;DHT22;53889;50.084;8.646;2023-04-16T09:37:31;10.90;99.90
54846;DHT22;53889;50.084;8.646;2023-04-16T09:39:59;10.90;99.90
54846;DHT22;53889;50.084;8.646;2023-04-16T09:42:27;10.90;99.90
54846;DHT22;53889;50.084;8.646;2023-04-16T09:44:54;10.90;99.90
54846;DHT22;53889;50.084;8.646;2023-04-16T09:47:23;10.90;99.90
54846;DHT22;53889;50.084;8.646;2023-04-16T09:49:49;10.90;99.90
54846;DHT22;53889;50.084;8.646;2023-04-16T09:52:17;11.90;99.90
54846;DHT22;53889;50.084;8.646;2023-04-16T09:54:47;10.90;99.90
54846;DHT22;53889;50.084;8.646;2023-04-16T09:57:16;11.00;99.90
54846;DHT22;53889;50.084;8.646;2023-04-16T09:59:45;11.00;99.90
54846;DHT22;53889;50.084;8.646;2023-04-16T10:02:12;11.00;99.90
54846;DHT22;53889;50.084;8.646;2023-04-16T10:04:46;11.10;99.90
54846;DHT22;53889;50.084;8.646;2023-04-16T10:07:13;11.10;99.90
54846;DHT22;53889;50.084;8.646;2023-04-16T10:09:40;11.10;99.90
54846;DHT22;53889;50.084;8.646;2023-04-16T10:12:09;11.20;99.90
54846;DHT22;53889;50.084;8.646;2023-04-16T10:14:37;11.20;99.90
54846;DHT22;53889;50.084;8.646;2023-04-16T10:17:04;11.20;99.90
54846;DHT22;53889;50.084;8.646;2023-04-16T10:19:32;11.20;99.90
54846;DHT22;53889;50.084;8.646;2023-04-16T10:21:59;11.20;99.90
54846;DHT22;53889;50.084;8.646;2023-04-16T10:24:27;11.20;99.90
54846;DHT22;53889;50.084;8.646;2023-04-16T10:26:54;11.20;99.90
54846;DHT22;53889;50.084;8.646;2023-04-16T10:29:23;11.30;99.90
54846;DHT22;53889;50.084;8.646;2023-04-16T10:31:50;11.30;99.90
54846;DHT22;53889;50.084;8.646;2023-04-16T10:34:20;11.20;99.90
54846;DHT22;53889;50.084;8.646;2023-04-16T10:36:48;11.20;99.90
54846;DHT22;53889;50.084;8.646;2023-04-16T10:39:18;11.10;99.90
54846;DHT22;53889;50.084;8.646;2023-04-16T10:41:45;11.10;99.90
54846;DHT22;53889;50.084;8.646;2023-04-16T10:44:12;11.10;99.90
54846;DHT22;53889;50.084;8.646;2023-04-16T10:46:41;11.10;99.90
54846;DHT22;53889;50.084;8.646;2023-04-16T10:49:14;11.10;99.90
54846;DHT22;53889;50.084;8.646;2023-04-16T10:51:51;11.10;99.90
54846;DHT22;53889;50.084;8.646;2023-04-16T10:54:20;11.20;99.90
54846;DHT22;53889;50.084;8.646;2023-04-16T10:56:49;11.20;99.90
54846;DHT22;53889;50.084;8.646;2023-04-16T10:59:18;11.00;99.90
54846;DHT22;53889;50.084;8.646;2023-04-16T11:01:49;11.20;99.90
54846;DHT22;53889;50.084;8.646;2023-04-16T11:04:43;10.90;99.90
54846;DHT22;53889;50.084;8.646;2023-04-16T11:07:17;11.30;99.90
54846;DHT22;53889;50.084;8.646;2023-04-16T11:09:53;11.30;99.90
54846;DHT22;53889;50.084;8.646;2023-04-16T11:12:21;11.30;99.90
54846;DHT22;53889;50.084;8.646;2023-04-16T11:14:49;11.20;99.90
54846;DHT22;53889;50.084;8.646;2023-04-16T11:17:18;11.30;99.90
54846;DHT22;53889;50.084;8.646;2023-04-16T11:19:46;11.30;99.90
54846;DHT22;53889;50.084;8.646;2023-04-16T11:22:14;11.30;99.90
54846;DHT22;53889;50.084;8.646;2023-04-16T11:24:42;11.20;99.90
54846;DHT22;53889;50.084;8.646;2023-04-16T11:27:11;11.20;99.90
54846;DHT22;53889;50.084;8.646;2023-04-16T11:29:39;11.20;99.90
54846;DHT22;53889;50.084;8.646;2023-04-16T11:32:06;11.10;99.90
54846;DHT22;53889;50.084;8.646;2023-04-16T11:34:41;11.10;99.90
54846;DHT22;53889;50.084;8.646;2023-04-16T11:37:08;11.20;99.90
54846;DHT22;53889;50.084;8.646;2023-04-16T11:39:47;11.20;99.90
54846;DHT22;53889;50.084;8.646;2023-04-16T11:42:18;11.30;99.90
54846;DHT22;53889;50.084;8.646;2023-04-16T11:44:45;11.20;99.90
54846;DHT22;53889;50.084;8.646;2023-04-16T11:47:12;11.30;99.90
54846;DHT22;53889;50.084;8.646;2023-04-16T11:49:40;11.40;99.90
54846;DHT22;53889;50.084;8.646;2023-04-16T11:52:07;11.50;99.90
54846;DHT22;53889;50.084;8.646;2023-04-16T11:54:33;11.50;99.90
54846;DHT22;53889;50.084;8.646;2023-04-16T11:57:01;11.60;99.90
54846;DHT22;53889;50.084;8.646;2023-04-16T11:59:29;11.70;99.90
54846;DHT22;53889;50.084;8.646;2023-04-16T12:01:56;11.80;99.90
54846;DHT22;53889;50.084;8.646;2023-04-16T12:04:24;11.80;99.90
54846;DHT22;53889;50.084;8.646;2023-04-16T12:07:05;13.00;99.90
54846;DHT22;53889;50.084;8.646;2023-04-16T12:09:32;12.00;99.90
54846;DHT22;53889;50.084;8.646;2023-04-16T12:12:00;12.10;99.90
54846;DHT22;53889;50.084;8.646;2023-04-16T12:14:27;12.10;99.90
54846;DHT22;53889;50.084;8.646;2023-04-16T12:16:54;12.90;99.90
54846;DHT22;53889;50.084;8.646;2023-04-16T12:19:21;12.20;99.90
54846;DHT22;53889;50.084;8.646;2023-04-16T12:21:49;12.30;99.90
54846;DHT22;53889;50.084;8.646;2023-04-16T12:24:24;12.30;99.90
54846;DHT22;53889;50.084;8.646;2023-04-16T12:26:53;12.30;99.90
54846;DHT22;53889;50.084;8.646;2023-04-16T12:29:23;13.70;99.90
54846;DHT22;53889;50.084;8.646;2023-04-16T12:31:51;12.40;99.90
54846;DHT22;53889;50.084;8.646;2023-04-16T12:34:19;12.30;99.90
54846;DHT22;53889;50.084;8.646;2023-04-16T12:36:47;12.40;99.90
54846;DHT22;53889;50.084;8.646;2023-04-16T12:39:16;12.30;99.90
54846;DHT22;53889;50.084;8.646;2023-04-16T12:41:43;12.30;99.90
54846;DHT22;53889;50.084;8.646;2023-04-16T12:44:11;12.30;99.90
54846;DHT22;53889;50.084;8.646;2023-04-16T12:46:38;12.40;99.90
54846;DHT22;53889;50.084;8.646;2023-04-16T12:49:06;12.50;99.90
54846;DHT22;53889;50.084;8.646;2023-04-16T12:51:33;12.60;99.90
54846;DHT22;53889;50.084;8.646;2023-04-16T12:54:00;12.70;99.90
54846;DHT22;53889;50.084;8.646;2023-04-16T12:56:29;12.80;99.90
54846;DHT22;53889;50.084;8.646;2023-04-16T12:58:56;12.90;99.90
54846;DHT22;53889;50.084;8.646;2023-04-16T13:01:23;12.90;99.90
54846;DHT22;53889;50.084;8.646;2023-04-16T13:03:50;12.80;99.90
54846;DHT22;53889;50.084;8.646;2023-04-16T13:06:17;12.90;99.90
54846;DHT22;53889;50.084;8.646;2023-04-16T13:08:44;12.90;99.90
54846;DHT22;53889;50.084;8.646;2023-04-16T13:11:12;13.00;99.90
54846;DHT22;53889;50.084;8.646;2023-04-16T13:13:40;12.90;99.90
54846;DHT22;53889;50.084;8.646;2023-04-16T13:16:07;12.90;99.90
54846;DHT22;53889;50.084;8.646;2023-04-16T13:18:34;12.90;99.90
54846;DHT22;53889;50.084;8.646;2023-04-16T13:21:02;12.80;99.90
54846;DHT22;53889;50.084;8.646;2023-04-16T13:23:29;12.90;99.90
54846;DHT22;53889;50.084;8.646;2023-04-16T13:25:56;13.10;99.90
54846;DHT22;53889;50.084;8.646;2023-04-16T13:28:22;13.30;99.90
54846;DHT22;53889;50.084;8.646;2023-04-16T13:30:52;13.50;99.90
54846;DHT22;53889;50.084;8.646;2023-04-16T13:33:19;13.90;99.90
54846;DHT22;53889;50.084;8.646;2023-04-16T13:35:46;13.70;99.90
54846;DHT22;53889;50.084;8.646;2023-04-16T13:38:13;13.60;99.90
54846;DHT22;53889;50.084;8.646;2023-04-16T13:40:40;13.50;99.90
54846;DHT22;53889;50.084;8.646;2023-04-16T13:43:07;13.40;99.90
54846;DHT22;53889;50.084;8.646;2023-04-16T13:45:33;13.50;99.90
54846;DHT22;53889;50.084;8.646;2023-04-16T13:48:01;13.80;99.90
54846;DHT22;53889;50.084;8.646;2023-04-16T13:50:28;13.80;99.90
54846;DHT22;53889;50.084;8.646;2023-04-16T13:52:55;13.90;99.90
54846;DHT22;53889;50.084;8.646;2023-04-16T13:55:22;14.00;99.90
54846;DHT22;53889;50.084;8.646;2023-04-16T13:57:48;14.00;99.90
54846;DHT22;53889;50.084;8.646;2023-04-16T14:00:17;14.10;99.90
54846;DHT22;53889;50.084;8.646;2023-04-16T14:02:45;14.30;99.90
54846;DHT22;53889;50.084;8.646;2023-04-16T14:05:15;14.20;99.90
54846;DHT22;53889;50.084;8.646;2023-04-16T14:07:43;14.30;99.90
54846;DHT22;53889;50.084;8.646;2023-04-16T14:10:11;14.20;99.90
54846;DHT22;53889;50.084;8.646;2023-04-16T14:12:37;14.10;99.90
54846;DHT22;53889;50.084;8.646;2023-04-16T14:15:05;14.00;99.90
54846;DHT22;53889;50.084;8.646;2023-04-16T14:17:34;14.00;99.90
54846;DHT22;53889;50.084;8.646;2023-04-16T14:20:00;14.00;99.90
54846;DHT22;53889;50.084;8.646;2023-04-16T14:22:29;13.90;99.90
54846;DHT22;53889;50.084;8.646;2023-04-16T14:24:56;14.00;99.90
54846;DHT22;53889;50.084;8.646;2023-04-16T14:27:23;14.10;99.90
54846;DHT22;53889;50.084;8.646;2023-04-16T14:29:50;13.70;99.90
54846;DHT22;53889;50.084;8.646;2023-04-16T14:32:16;13.50;99.90
54846;DHT22;53889;50.084;8.646;2023-04-16T14:34:43;13.50;99.90
54846;DHT22;53889;50.084;8.646;2023-04-16T14:37:10;13.40;99.90
54846;DHT22;53889;50.084;8.646;2023-04-16T14:39:38;13.40;99.90
54846;DHT22;53889;50.084;8.646;2023-04-16T14:42:05;13.40;99.90
54846;DHT22;53889;50.084;8.646;2023-04-16T14:44:31;13.40;99.90
54846;DHT22;53889;50.084;8.646;2023-04-16T14:46:58;13.30;99.90
54846;DHT22;53889;50.084;8.646;2023-04-16T14:49:25;13.30;99.90
54846;DHT22;53889;50.084;8.646;2023-04-16T14:51:52;13.30;99.90
54846;DHT22;53889;50.084;8.646;2023-04-16T14:54:19;13.30;99.90
54846;DHT22;53889;50.084;8.646;2023-04-16T14:56:47;13.40;99.90
54846;DHT22;53889;50.084;8.646;2023-04-16T14:59:14;13.60;99.90
54846;DHT22;53889;50.084;8.646;2023-04-16T15:01:41;13.80;99.90
54846;DHT22;53889;50.084;8.646;2023-04-16T15:04:08;13.90;99.90
54846;DHT22;53889;50.084;8.646;2023-04-16T15:06:35;13.90;99.90
54846;DHT22;53889;50.084;8.646;2023-04-16T15:09:02;14.00;99.90
54846;DHT22;53889;50.084;8.646;2023-04-16T15:11:29;14.00;99.90
54846;DHT22;53889;50.084;8.646;2023-04-16T15:13:57;14.00;99.90
54846;DHT22;53889;50.084;8.646;2023-04-16T15:16:24;14.10;99.90
54846;DHT22;53889;50.084;8.646;2023-04-16T15:18:51;14.10;99.90
54846;DHT22;53889;50.084;8.646;2023-04-16T15:21:18;14.10;99.90
54846;DHT22;53889;50.084;8.646;2023-04-16T15:23:44;14.00;99.90
54846;DHT22;53889;50.084;8.646;2023-04-16T15:26:11;13.90;99.90
54846;DHT22;53889;50.084;8.646;2023-04-16T15:28:38;13.90;99.90
54846;DHT22;53889;50.084;8.646;2023-04-16T15:31:06;13.90;99.90
54846;DHT22;53889;50.084;8.646;2023-04-16T15:33:33;13.90;99.90
54846;DHT22;53889;50.084;8.646;2023-04-16T15:36:00;14.10;99.90
54846;DHT22;53889;50.084;8.646;2023-04-16T15:38:27;14.10;99.90